sensor_id;sensor_type;location;lat;lon;timestamp;P1;durP1;ratioP1;P2;durP2;ratioP2
50968;SDS011;36982;51.474;7.228;2024-01-07T00:02:14;9.83;;;6.07;;
50968;SDS011;36982;51.474;7.228;2024-01-07T00:04:40;10.07;;;6.40;;
50968;SDS011;36982;51.474;7.228;2024-01-07T00:07:06;9.80;;;6.07;;
50968;SDS011;36982;51.474;7.228;2024-01-07T00:09:31;9.40;;;5.97;;
50968;SDS011;36982;51.474;7.228;2024-01-07T00:11:57;8.87;;;5.30;;
50968;SDS011;36982;51.474;7.228;2024-01-07T00:14:23;10.60;;;6.13;;
50968;SDS011;36982;51.474;7.228;2024-01-07T00:16:48;10.53;;;6.20;;
50968;SDS011;36982;51.474;7.228;2024-01-07T00:19:14;10.43;;;5.40;;
50968;SDS011;36982;51.474;7.228;2024-01-07T00:21:39;10.10;;;6.43;;
50968;SDS011;36982;51.474;7.228;2024-01-07T00:24:05;9.80;;;5.97;;
50968;SDS011;36982;51.474;7.228;2024-01-07T00:26:31;12.13;;;6.20;;
50968;SDS011;36982;51.474;7.228;2024-01-07T00:28:56;13.57;;;6.57;;
50968;SDS011;36982;51.474;7.228;2024-01-07T00:31:22;8.67;;;5.57;;
50968;SDS011;36982;51.474;7.228;2024-01-07T00:33:47;9.97;;;6.57;;
50968;SDS011;36982;51.474;7.228;2024-01-07T00:36:13;10.30;;;5.70;;
50968;SDS011;36982;51.474;7.228;2024-01-07T00:38:39;9.80;;;5.73;;
50968;SDS011;36982;51.474;7.228;2024-01-07T00:41:04;9.53;;;5.87;;
50968;SDS011;36982;51.474;7.228;2024-01-07T00:43:30;9.27;;;5.33;;
50968;SDS011;36982;51.474;7.228;2024-01-07T00:45:55;10.80;;;6.37;;
50968;SDS011;36982;51.474;7.228;2024-01-07T00:48:21;12.13;;;6.13;;
50968;SDS011;36982;51.474;7.228;2024-01-07T00:50:46;12.50;;;7.30;;
50968;SDS011;36982;51.474;7.228;2024-01-07T00:53:12;14.83;;;7.00;;
50968;SDS011;36982;51.474;7.228;2024-01-07T00:55:38;12.73;;;6.70;;
50968;SDS011;36982;51.474;7.228;2024-01-07T00:58:03;11.17;;;6.67;;
50968;SDS011;36982;51.474;7.228;2024-01-07T01:00:29;13.03;;;6.60;;
50968;SDS011;36982;51.474;7.228;2024-01-07T01:02:55;12.20;;;6.83;;
50968;SDS011;36982;51.474;7.228;2024-01-07T01:05:21;6.93;;;4.73;;
50968;SDS011;36982;51.474;7.228;2024-01-07T01:07:47;11.53;;;6.57;;
50968;SDS011;36982;51.474;7.228;2024-01-07T01:10:12;12.30;;;6.53;;
50968;SDS011;36982;51.474;7.228;2024-01-07T01:12:41;14.37;;;6.43;;
50968;SDS011;36982;51.474;7.228;2024-01-07T01:15:07;10.43;;;6.63;;
50968;SDS011;36982;51.474;7.228;2024-01-07T01:17:33;13.47;;;7.00;;
50968;SDS011;36982;51.474;7.228;2024-01-07T01:19:59;11.17;;;6.67;;
50968;SDS011;36982;51.474;7.228;2024-01-07T01:22:24;13.03;;;7.17;;
50968;SDS011;36982;51.474;7.228;2024-01-07T01:24:50;11.07;;;6.07;;
50968;SDS011;36982;51.474;7.228;2024-01-07T01:27:25;8.10;;;4.47;;
50968;SDS011;36982;51.474;7.228;2024-01-07T01:29:50;11.20;;;5.60;;
50968;SDS011;36982;51.474;7.228;2024-01-07T01:32:16;9.27;;;5.00;;
50968;SDS011;36982;51.474;7.228;2024-01-07T01:34:42;11.73;;;6.27;;
50968;SDS011;36982;51.474;7.228;2024-01-07T01:37:08;10.27;;;5.47;;
50968;SDS011;36982;51.474;7.228;2024-01-07T01:39:34;12.50;;;6.50;;
50968;SDS011;36982;51.474;7.228;2024-01-07T01:41:59;12.27;;;6.50;;
50968;SDS011;36982;51.474;7.228;2024-01-07T01:44:25;11.50;;;6.33;;
50968;SDS011;36982;51.474;7.228;2024-01-07T01:46:53;11.20;;;6.23;;
50968;SDS011;36982;51.474;7.228;2024-01-07T01:49:20;13.40;;;6.70;;
50968;SDS011;36982;51.474;7.228;2024-01-07T01:51:45;11.23;;;6.00;;
50968;SDS011;36982;51.474;7.228;2024-01-07T01:54:12;9.40;;;6.13;;
50968;SDS011;36982;51.474;7.228;2024-01-07T01:56:37;9.63;;;5.77;;
50968;SDS011;36982;51.474;7.228;2024-01-07T01:59:04;10.30;;;5.67;;
50968;SDS011;36982;51.474;7.228;2024-01-07T02:01:30;11.67;;;6.30;;
50968;SDS011;36982;51.474;7.228;2024-01-07T02:03:56;12.47;;;6.70;;
50968;SDS011;36982;51.474;7.228;2024-01-07T02:06:22;10.43;;;6.13;;
50968;SDS011;36982;51.474;7.228;2024-01-07T02:08:48;11.20;;;6.30;;
50968;SDS011;36982;51.474;7.228;2024-01-07T02:11:15;12.17;;;7.10;;
50968;SDS011;36982;51.474;7.228;2024-01-07T02:13:42;11.87;;;6.87;;
50968;SDS011;36982;51.474;7.228;2024-01-07T02:16:08;11.97;;;6.47;;
50968;SDS011;36982;51.474;7.228;2024-01-07T02:18:34;11.33;;;5.43;;
50968;SDS011;36982;51.474;7.228;2024-01-07T02:21:00;13.30;;;6.80;;
50968;SDS011;36982;51.474;7.228;2024-01-07T02:23:25;10.60;;;6.00;;
50968;SDS011;36982;51.474;7.228;2024-01-07T02:25:51;13.37;;;6.70;;
50968;SDS011;36982;51.474;7.228;2024-01-07T02:28:16;11.77;;;7.03;;
50968;SDS011;36982;51.474;7.228;2024-01-07T02:30:42;14.93;;;7.27;;
50968;SDS011;36982;51.474;7.228;2024-01-07T02:33:08;10.47;;;5.77;;
50968;SDS011;36982;51.474;7.228;2024-01-07T02:35:33;13.47;;;7.53;;
50968;SDS011;36982;51.474;7.228;2024-01-07T02:37:59;10.43;;;6.30;;
50968;SDS011;36982;51.474;7.228;2024-01-07T02:40:25;14.47;;;8.07;;
50968;SDS011;36982;51.474;7.228;2024-01-07T02:42:50;16.43;;;9.10;;
50968;SDS011;36982;51.474;7.228;2024-01-07T02:45:16;7.53;;;4.60;;
50968;SDS011;36982;51.474;7.228;2024-01-07T02:47:41;15.17;;;8.20;;
50968;SDS011;36982;51.474;7.228;2024-01-07T02:50:07;15.60;;;8.13;;
50968;SDS011;36982;51.474;7.228;2024-01-07T02:52:33;7.87;;;4.33;;
50968;SDS011;36982;51.474;7.228;2024-01-07T02:54:58;16.47;;;8.80;;
50968;SDS011;36982;51.474;7.228;2024-01-07T02:57:26;13.57;;;7.60;;
50968;SDS011;36982;51.474;7.228;2024-01-07T02:59:52;13.33;;;5.87;;
50968;SDS011;36982;51.474;7.228;2024-01-07T03:02:17;12.37;;;7.77;;
50968;SDS011;36982;51.474;7.228;2024-01-07T03:04:43;17.83;;;8.63;;
50968;SDS011;36982;51.474;7.228;2024-01-07T03:07:09;12.60;;;7.90;;
50968;SDS011;36982;51.474;7.228;2024-01-07T03:09:34;16.70;;;8.40;;
50968;SDS011;36982;51.474;7.228;2024-01-07T03:12:00;14.70;;;8.50;;
50968;SDS011;36982;51.474;7.228;2024-01-07T03:14:25;15.63;;;8.77;;
50968;SDS011;36982;51.474;7.228;2024-01-07T03:16:51;5.13;;;3.53;;
50968;SDS011;36982;51.474;7.228;2024-01-07T03:19:17;13.87;;;8.50;;
50968;SDS011;36982;51.474;7.228;2024-01-07T03:21:43;15.40;;;8.67;;
50968;SDS011;36982;51.474;7.228;2024-01-07T03:24:08;12.10;;;7.30;;
50968;SDS011;36982;51.474;7.228;2024-01-07T03:26:35;16.77;;;8.87;;
50968;SDS011;36982;51.474;7.228;2024-01-07T03:29:01;16.83;;;9.33;;
50968;SDS011;36982;51.474;7.228;2024-01-07T03:31:27;13.87;;;9.37;;
50968;SDS011;36982;51.474;7.228;2024-01-07T03:33:53;14.47;;;8.27;;
50968;SDS011;36982;51.474;7.228;2024-01-07T03:36:19;9.30;;;4.60;;
50968;SDS011;36982;51.474;7.228;2024-01-07T03:38:45;13.40;;;8.47;;
50968;SDS011;36982;51.474;7.228;2024-01-07T03:41:15;12.60;;;7.47;;
50968;SDS011;36982;51.474;7.228;2024-01-07T03:43:48;13.40;;;8.30;;
50968;SDS011;36982;51.474;7.228;2024-01-07T03:46:14;6.80;;;3.37;;
50968;SDS011;36982;51.474;7.228;2024-01-07T03:48:40;13.13;;;7.67;;
50968;SDS011;36982;51.474;7.228;2024-01-07T03:51:06;9.70;;;6.43;;
50968;SDS011;36982;51.474;7.228;2024-01-07T03:53:32;12.60;;;7.73;;
50968;SDS011;36982;51.474;7.228;2024-01-07T03:55:58;12.03;;;7.17;;
50968;SDS011;36982;51.474;7.228;2024-01-07T03:58:23;11.83;;;7.53;;
50968;SDS011;36982;51.474;7.228;2024-01-07T04:00:49;10.73;;;6.97;;
50968;SDS011;36982;51.474;7.228;2024-01-07T04:03:15;10.27;;;6.50;;
50968;SDS011;36982;51.474;7.228;2024-01-07T04:05:40;10.13;;;7.27;;
50968;SDS011;36982;51.474;7.228;2024-01-07T04:08:09;11.83;;;7.10;;
50968;SDS011;36982;51.474;7.228;2024-01-07T04:10:34;10.07;;;5.70;;
50968;SDS011;36982;51.474;7.228;2024-01-07T04:13:00;9.17;;;6.20;;
50968;SDS011;36982;51.474;7.228;2024-01-07T04:15:31;8.67;;;5.23;;
50968;SDS011;36982;51.474;7.228;2024-01-07T04:17:56;9.10;;;4.87;;
50968;SDS011;36982;51.474;7.228;2024-01-07T04:20:25;8.60;;;4.40;;
50968;SDS011;36982;51.474;7.228;2024-01-07T04:22:51;11.27;;;7.00;;
50968;SDS011;36982;51.474;7.228;2024-01-07T04:25:16;10.07;;;6.53;;
50968;SDS011;36982;51.474;7.228;2024-01-07T04:27:42;10.10;;;7.03;;
50968;SDS011;36982;51.474;7.228;2024-01-07T04:30:07;11.67;;;6.90;;
50968;SDS011;36982;51.474;7.228;2024-01-07T04:32:34;13.90;;;7.63;;
50968;SDS011;36982;51.474;7.228;2024-01-07T04:34:59;13.93;;;7.73;;
50968;SDS011;36982;51.474;7.228;2024-01-07T04:37:25;13.13;;;7.30;;
50968;SDS011;36982;51.474;7.228;2024-01-07T04:39:50;11.60;;;6.63;;
50968;SDS011;36982;51.474;7.228;2024-01-07T04:42:19;11.73;;;7.10;;
50968;SDS011;36982;51.474;7.228;2024-01-07T04:44:45;11.30;;;6.57;;
50968;SDS011;36982;51.474;7.228;2024-01-07T04:47:30;11.90;;;7.90;;
50968;SDS011;36982;51.474;7.228;2024-01-07T04:49:56;12.57;;;7.10;;
50968;SDS011;36982;51.474;7.228;2024-01-07T04:52:23;6.77;;;3.63;;
50968;SDS011;36982;51.474;7.228;2024-01-07T04:54:52;11.10;;;6.73;;
50968;SDS011;36982;51.474;7.228;2024-01-07T04:57:18;13.43;;;7.53;;
50968;SDS011;36982;51.474;7.228;2024-01-07T04:59:44;8.97;;;6.17;;
50968;SDS011;36982;51.474;7.228;2024-01-07T05:02:11;13.47;;;7.77;;
50968;SDS011;36982;51.474;7.228;2024-01-07T05:04:36;13.63;;;7.93;;
50968;SDS011;36982;51.474;7.228;2024-01-07T05:07:02;8.83;;;4.53;;
50968;SDS011;36982;51.474;7.228;2024-01-07T05:09:29;13.07;;;7.93;;
50968;SDS011;36982;51.474;7.228;2024-01-07T05:11:54;11.47;;;7.20;;
50968;SDS011;36982;51.474;7.228;2024-01-07T05:14:20;11.87;;;7.00;;
50968;SDS011;36982;51.474;7.228;2024-01-07T05:16:47;11.00;;;7.30;;
50968;SDS011;36982;51.474;7.228;2024-01-07T05:19:13;13.80;;;7.57;;
50968;SDS011;36982;51.474;7.228;2024-01-07T05:21:38;11.90;;;7.00;;
50968;SDS011;36982;51.474;7.228;2024-01-07T05:24:04;14.57;;;8.33;;
50968;SDS011;36982;51.474;7.228;2024-01-07T05:26:30;14.07;;;7.80;;
50968;SDS011;36982;51.474;7.228;2024-01-07T05:28:56;9.80;;;5.30;;
50968;SDS011;36982;51.474;7.228;2024-01-07T05:31:21;11.10;;;7.10;;
50968;SDS011;36982;51.474;7.228;2024-01-07T05:33:47;12.30;;;8.20;;
50968;SDS011;36982;51.474;7.228;2024-01-07T05:36:13;12.70;;;8.23;;
50968;SDS011;36982;51.474;7.228;2024-01-07T05:38:38;13.00;;;7.20;;
50968;SDS011;36982;51.474;7.228;2024-01-07T05:41:06;13.13;;;7.63;;
50968;SDS011;36982;51.474;7.228;2024-01-07T05:43:31;11.67;;;7.43;;
50968;SDS011;36982;51.474;7.228;2024-01-07T05:45:57;13.40;;;8.37;;
50968;SDS011;36982;51.474;7.228;2024-01-07T05:48:22;13.77;;;8.20;;
50968;SDS011;36982;51.474;7.228;2024-01-07T05:50:48;13.53;;;8.43;;
50968;SDS011;36982;51.474;7.228;2024-01-07T05:53:14;12.23;;;7.60;;
50968;SDS011;36982;51.474;7.228;2024-01-07T05:55:41;6.20;;;4.40;;
50968;SDS011;36982;51.474;7.228;2024-01-07T05:58:06;13.93;;;8.60;;
50968;SDS011;36982;51.474;7.228;2024-01-07T06:00:32;12.77;;;7.23;;
50968;SDS011;36982;51.474;7.228;2024-01-07T06:02:57;15.50;;;8.67;;
50968;SDS011;36982;51.474;7.228;2024-01-07T06:05:23;13.70;;;8.17;;
50968;SDS011;36982;51.474;7.228;2024-01-07T06:07:48;13.07;;;7.97;;
50968;SDS011;36982;51.474;7.228;2024-01-07T06:10:14;13.63;;;8.37;;
50968;SDS011;36982;51.474;7.228;2024-01-07T06:12:40;9.70;;;5.27;;
50968;SDS011;36982;51.474;7.228;2024-01-07T06:15:06;11.20;;;6.40;;
50968;SDS011;36982;51.474;7.228;2024-01-07T06:17:31;12.30;;;7.77;;
50968;SDS011;36982;51.474;7.228;2024-01-07T06:19:57;13.57;;;7.73;;
50968;SDS011;36982;51.474;7.228;2024-01-07T06:22:23;13.13;;;7.37;;
50968;SDS011;36982;51.474;7.228;2024-01-07T06:24:48;15.00;;;8.17;;
50968;SDS011;36982;51.474;7.228;2024-01-07T06:27:14;13.10;;;7.83;;
50968;SDS011;36982;51.474;7.228;2024-01-07T06:29:40;10.10;;;6.30;;
50968;SDS011;36982;51.474;7.228;2024-01-07T06:32:05;13.07;;;8.63;;
50968;SDS011;36982;51.474;7.228;2024-01-07T06:34:31;15.77;;;9.53;;
50968;SDS011;36982;51.474;7.228;2024-01-07T06:36:58;11.80;;;6.33;;
50968;SDS011;36982;51.474;7.228;2024-01-07T06:39:24;14.87;;;9.37;;
50968;SDS011;36982;51.474;7.228;2024-01-07T06:41:52;15.47;;;8.53;;
50968;SDS011;36982;51.474;7.228;2024-01-07T06:44:17;12.33;;;6.70;;
50968;SDS011;36982;51.474;7.228;2024-01-07T06:46:43;14.90;;;9.07;;
50968;SDS011;36982;51.474;7.228;2024-01-07T06:49:09;15.77;;;8.80;;
50968;SDS011;36982;51.474;7.228;2024-01-07T06:51:34;15.93;;;9.27;;
50968;SDS011;36982;51.474;7.228;2024-01-07T06:54:00;16.30;;;8.97;;
50968;SDS011;36982;51.474;7.228;2024-01-07T06:56:25;14.07;;;9.07;;
50968;SDS011;36982;51.474;7.228;2024-01-07T06:58:51;13.87;;;8.80;;
50968;SDS011;36982;51.474;7.228;2024-01-07T07:01:20;17.53;;;9.60;;
50968;SDS011;36982;51.474;7.228;2024-01-07T07:03:48;14.80;;;9.00;;
50968;SDS011;36982;51.474;7.228;2024-01-07T07:06:14;13.87;;;7.23;;
50968;SDS011;36982;51.474;7.228;2024-01-07T07:08:39;14.00;;;8.80;;
50968;SDS011;36982;51.474;7.228;2024-01-07T07:11:05;12.77;;;8.33;;
50968;SDS011;36982;51.474;7.228;2024-01-07T07:13:31;15.53;;;8.50;;
50968;SDS011;36982;51.474;7.228;2024-01-07T07:15:56;15.03;;;9.23;;
50968;SDS011;36982;51.474;7.228;2024-01-07T07:18:22;16.07;;;8.60;;
50968;SDS011;36982;51.474;7.228;2024-01-07T07:20:48;11.83;;;7.90;;
50968;SDS011;36982;51.474;7.228;2024-01-07T07:23:13;10.63;;;5.47;;
50968;SDS011;36982;51.474;7.228;2024-01-07T07:25:39;11.23;;;6.97;;
50968;SDS011;36982;51.474;7.228;2024-01-07T07:28:04;7.70;;;5.00;;
50968;SDS011;36982;51.474;7.228;2024-01-07T07:30:30;11.67;;;6.70;;
50968;SDS011;36982;51.474;7.228;2024-01-07T07:32:55;9.03;;;5.80;;
50968;SDS011;36982;51.474;7.228;2024-01-07T07:35:21;8.00;;;3.53;;
50968;SDS011;36982;51.474;7.228;2024-01-07T07:37:47;5.73;;;4.07;;
50968;SDS011;36982;51.474;7.228;2024-01-07T07:40:12;8.97;;;5.80;;
50968;SDS011;36982;51.474;7.228;2024-01-07T07:42:38;7.87;;;4.50;;
50968;SDS011;36982;51.474;7.228;2024-01-07T07:45:04;4.13;;;2.70;;
50968;SDS011;36982;51.474;7.228;2024-01-07T07:47:30;4.07;;;2.50;;
50968;SDS011;36982;51.474;7.228;2024-01-07T07:49:56;7.47;;;5.40;;
50968;SDS011;36982;51.474;7.228;2024-01-07T07:52:22;5.43;;;3.77;;
50968;SDS011;36982;51.474;7.228;2024-01-07T07:54:51;7.97;;;5.50;;
50968;SDS011;36982;51.474;7.228;2024-01-07T07:57:17;9.87;;;6.27;;
50968;SDS011;36982;51.474;7.228;2024-01-07T07:59:44;7.33;;;4.67;;
50968;SDS011;36982;51.474;7.228;2024-01-07T08:02:10;11.60;;;6.30;;
50968;SDS011;36982;51.474;7.228;2024-01-07T08:04:35;7.87;;;4.60;;
50968;SDS011;36982;51.474;7.228;2024-01-07T08:07:01;11.37;;;6.33;;
50968;SDS011;36982;51.474;7.228;2024-01-07T08:09:27;11.53;;;6.07;;
50968;SDS011;36982;51.474;7.228;2024-01-07T08:11:53;11.07;;;6.33;;
50968;SDS011;36982;51.474;7.228;2024-01-07T08:20:41;8.87;;;5.60;;
50968;SDS011;36982;51.474;7.228;2024-01-07T08:23:07;9.80;;;6.83;;
50968;SDS011;36982;51.474;7.228;2024-01-07T08:25:32;10.47;;;5.70;;
50968;SDS011;36982;51.474;7.228;2024-01-07T08:27:58;11.07;;;6.50;;
50968;SDS011;36982;51.474;7.228;2024-01-07T08:30:24;9.03;;;6.20;;
50968;SDS011;36982;51.474;7.228;2024-01-07T08:32:49;7.37;;;4.43;;
50968;SDS011;36982;51.474;7.228;2024-01-07T08:35:15;9.67;;;6.10;;
50968;SDS011;36982;51.474;7.228;2024-01-07T08:37:40;4.60;;;3.50;;
50968;SDS011;36982;51.474;7.228;2024-01-07T08:40:06;10.03;;;5.97;;
50968;SDS011;36982;51.474;7.228;2024-01-07T08:42:34;8.20;;;5.20;;
50968;SDS011;36982;51.474;7.228;2024-01-07T08:45:00;6.40;;;4.17;;
50968;SDS011;36982;51.474;7.228;2024-01-07T08:47:26;11.50;;;6.43;;
50968;SDS011;36982;51.474;7.228;2024-01-07T08:49:52;8.13;;;5.83;;
50968;SDS011;36982;51.474;7.228;2024-01-07T08:52:18;9.43;;;4.87;;
50968;SDS011;36982;51.474;7.228;2024-01-07T08:54:44;9.63;;;6.07;;
50968;SDS011;36982;51.474;7.228;2024-01-07T08:57:10;8.80;;;5.73;;
50968;SDS011;36982;51.474;7.228;2024-01-07T08:59:35;8.27;;;5.63;;
50968;SDS011;36982;51.474;7.228;2024-01-07T09:02:01;9.90;;;5.53;;
50968;SDS011;36982;51.474;7.228;2024-01-07T09:04:27;9.17;;;5.80;;
50968;SDS011;36982;51.474;7.228;2024-01-07T09:06:53;8.90;;;5.17;;
50968;SDS011;36982;51.474;7.228;2024-01-07T09:09:18;7.40;;;4.90;;
50968;SDS011;36982;51.474;7.228;2024-01-07T09:11:44;9.23;;;5.40;;
50968;SDS011;36982;51.474;7.228;2024-01-07T09:14:10;8.63;;;5.13;;
50968;SDS011;36982;51.474;7.228;2024-01-07T09:16:36;9.90;;;5.97;;
50968;SDS011;36982;51.474;7.228;2024-01-07T09:19:02;5.07;;;3.70;;
50968;SDS011;36982;51.474;7.228;2024-01-07T09:21:27;5.93;;;2.70;;
50968;SDS011;36982;51.474;7.228;2024-01-07T09:23:53;7.27;;;4.13;;
50968;SDS011;36982;51.474;7.228;2024-01-07T09:26:18;4.23;;;3.17;;
50968;SDS011;36982;51.474;7.228;2024-01-07T09:28:44;7.63;;;4.60;;
50968;SDS011;36982;51.474;7.228;2024-01-07T09:31:09;8.37;;;4.80;;
50968;SDS011;36982;51.474;7.228;2024-01-07T09:33:35;4.63;;;3.37;;
50968;SDS011;36982;51.474;7.228;2024-01-07T09:36:01;6.63;;;3.67;;
50968;SDS011;36982;51.474;7.228;2024-01-07T09:38:26;4.50;;;2.57;;
50968;SDS011;36982;51.474;7.228;2024-01-07T09:40:52;4.43;;;3.33;;
50968;SDS011;36982;51.474;7.228;2024-01-07T09:43:18;8.30;;;4.13;;
50968;SDS011;36982;51.474;7.228;2024-01-07T09:45:48;6.90;;;4.63;;
50968;SDS011;36982;51.474;7.228;2024-01-07T09:48:15;5.77;;;3.73;;
50968;SDS011;36982;51.474;7.228;2024-01-07T09:50:41;5.23;;;3.37;;
50968;SDS011;36982;51.474;7.228;2024-01-07T09:53:07;6.43;;;5.03;;
50968;SDS011;36982;51.474;7.228;2024-01-07T09:55:47;6.20;;;3.47;;
50968;SDS011;36982;51.474;7.228;2024-01-07T09:58:22;4.87;;;3.17;;
50968;SDS011;36982;51.474;7.228;2024-01-07T10:00:48;6.43;;;4.30;;
50968;SDS011;36982;51.474;7.228;2024-01-07T10:03:14;7.50;;;4.27;;
50968;SDS011;36982;51.474;7.228;2024-01-07T10:05:39;6.87;;;4.40;;
50968;SDS011;36982;51.474;7.228;2024-01-07T10:08:05;7.63;;;3.93;;
50968;SDS011;36982;51.474;7.228;2024-01-07T10:10:31;5.23;;;3.13;;
50968;SDS011;36982;51.474;7.228;2024-01-07T10:12:59;6.30;;;3.60;;
50968;SDS011;36982;51.474;7.228;2024-01-07T10:15:25;9.30;;;5.13;;
50968;SDS011;36982;51.474;7.228;2024-01-07T10:17:54;6.17;;;3.30;;
50968;SDS011;36982;51.474;7.228;2024-01-07T10:20:21;2.77;;;1.93;;
50968;SDS011;36982;51.474;7.228;2024-01-07T10:22:49;5.90;;;2.50;;
50968;SDS011;36982;51.474;7.228;2024-01-07T10:25:15;5.53;;;3.77;;
50968;SDS011;36982;51.474;7.228;2024-01-07T10:27:41;6.80;;;3.80;;
50968;SDS011;36982;51.474;7.228;2024-01-07T10:30:07;6.07;;;3.80;;
50968;SDS011;36982;51.474;7.228;2024-01-07T10:32:36;5.93;;;3.80;;
50968;SDS011;36982;51.474;7.228;2024-01-07T10:35:03;4.53;;;3.23;;
50968;SDS011;36982;51.474;7.228;2024-01-07T10:37:29;5.93;;;3.00;;
50968;SDS011;36982;51.474;7.228;2024-01-07T10:39:59;4.23;;;2.63;;
50968;SDS011;36982;51.474;7.228;2024-01-07T10:42:29;5.53;;;3.33;;
50968;SDS011;36982;51.474;7.228;2024-01-07T10:44:56;5.53;;;3.10;;
50968;SDS011;36982;51.474;7.228;2024-01-07T10:47:22;4.27;;;3.00;;
50968;SDS011;36982;51.474;7.228;2024-01-07T10:49:51;4.63;;;2.87;;
50968;SDS011;36982;51.474;7.228;2024-01-07T10:52:18;4.03;;;2.50;;
50968;SDS011;36982;51.474;7.228;2024-01-07T10:54:50;7.17;;;3.43;;
50968;SDS011;36982;51.474;7.228;2024-01-07T10:57:39;4.17;;;2.43;;
50968;SDS011;36982;51.474;7.228;2024-01-07T11:00:10;2.97;;;2.30;;
50968;SDS011;36982;51.474;7.228;2024-01-07T11:05:50;4.33;;;2.90;;
50968;SDS011;36982;51.474;7.228;2024-01-07T11:10:52;4.60;;;3.17;;
50968;SDS011;36982;51.474;7.228;2024-01-07T11:13:35;3.17;;;2.40;;
50968;SDS011;36982;51.474;7.228;2024-01-07T11:16:03;3.97;;;1.80;;
50968;SDS011;36982;51.474;7.228;2024-01-07T11:18:37;5.83;;;3.30;;
50968;SDS011;36982;51.474;7.228;2024-01-07T11:21:05;5.63;;;2.50;;
50968;SDS011;36982;51.474;7.228;2024-01-07T11:23:31;4.53;;;2.70;;
50968;SDS011;36982;51.474;7.228;2024-01-07T11:25:59;4.13;;;2.70;;
50968;SDS011;36982;51.474;7.228;2024-01-07T11:31:18;3.27;;;2.13;;
50968;SDS011;36982;51.474;7.228;2024-01-07T11:33:45;2.87;;;2.00;;
50968;SDS011;36982;51.474;7.228;2024-01-07T11:36:15;3.50;;;2.10;;
50968;SDS011;36982;51.474;7.228;2024-01-07T11:38:44;3.77;;;1.87;;
50968;SDS011;36982;51.474;7.228;2024-01-07T11:41:12;3.90;;;2.20;;
50968;SDS011;36982;51.474;7.228;2024-01-07T11:43:42;3.73;;;1.63;;
50968;SDS011;36982;51.474;7.228;2024-01-07T11:46:21;3.07;;;1.70;;
50968;SDS011;36982;51.474;7.228;2024-01-07T11:48:47;3.90;;;2.43;;
50968;SDS011;36982;51.474;7.228;2024-01-07T11:51:14;3.37;;;2.17;;
50968;SDS011;36982;51.474;7.228;2024-01-07T11:53:39;3.70;;;2.20;;
50968;SDS011;36982;51.474;7.228;2024-01-07T11:56:05;4.10;;;1.80;;
50968;SDS011;36982;51.474;7.228;2024-01-07T11:58:33;4.37;;;2.10;;
50968;SDS011;36982;51.474;7.228;2024-01-07T12:00:58;3.10;;;2.00;;
50968;SDS011;36982;51.474;7.228;2024-01-07T12:03:24;1.97;;;1.57;;
50968;SDS011;36982;51.474;7.228;2024-01-07T12:05:49;1.97;;;1.20;;
50968;SDS011;36982;51.474;7.228;2024-01-07T12:08:16;3.63;;;1.90;;
50968;SDS011;36982;51.474;7.228;2024-01-07T12:10:42;2.63;;;1.17;;
50968;SDS011;36982;51.474;7.228;2024-01-07T12:13:08;2.83;;;1.77;;
50968;SDS011;36982;51.474;7.228;2024-01-07T12:15:35;4.07;;;1.97;;
50968;SDS011;36982;51.474;7.228;2024-01-07T12:18:02;3.00;;;2.00;;
50968;SDS011;36982;51.474;7.228;2024-01-07T12:20:29;3.27;;;1.90;;
50968;SDS011;36982;51.474;7.228;2024-01-07T12:23:05;2.47;;;1.03;;
50968;SDS011;36982;51.474;7.228;2024-01-07T12:25:34;3.17;;;2.00;;
50968;SDS011;36982;51.474;7.228;2024-01-07T12:28:00;2.57;;;1.60;;
50968;SDS011;36982;51.474;7.228;2024-01-07T12:30:26;2.70;;;2.10;;
50968;SDS011;36982;51.474;7.228;2024-01-07T12:32:52;0.83;;;0.60;;
50968;SDS011;36982;51.474;7.228;2024-01-07T12:35:18;2.77;;;2.00;;
50968;SDS011;36982;51.474;7.228;2024-01-07T12:37:44;1.73;;;1.00;;
50968;SDS011;36982;51.474;7.228;2024-01-07T12:40:10;1.90;;;1.50;;
50968;SDS011;36982;51.474;7.228;2024-01-07T12:42:37;2.97;;;1.33;;
50968;SDS011;36982;51.474;7.228;2024-01-07T12:45:06;1.33;;;0.63;;
50968;SDS011;36982;51.474;7.228;2024-01-07T12:47:32;2.20;;;1.20;;
50968;SDS011;36982;51.474;7.228;2024-01-07T12:49:59;0.70;;;0.57;;
50968;SDS011;36982;51.474;7.228;2024-01-07T12:52:24;1.13;;;1.03;;
50968;SDS011;36982;51.474;7.228;2024-01-07T12:54:52;2.23;;;1.70;;
50968;SDS011;36982;51.474;7.228;2024-01-07T12:57:17;1.57;;;1.20;;
50968;SDS011;36982;51.474;7.228;2024-01-07T12:59:43;2.93;;;1.60;;
50968;SDS011;36982;51.474;7.228;2024-01-07T13:02:09;1.53;;;1.17;;
50968;SDS011;36982;51.474;7.228;2024-01-07T13:04:34;2.13;;;1.60;;
50968;SDS011;36982;51.474;7.228;2024-01-07T13:07:00;2.50;;;1.60;;
50968;SDS011;36982;51.474;7.228;2024-01-07T13:09:25;2.23;;;0.90;;
50968;SDS011;36982;51.474;7.228;2024-01-07T13:11:51;6.20;;;1.67;;
50968;SDS011;36982;51.474;7.228;2024-01-07T13:14:16;3.50;;;1.47;;
50968;SDS011;36982;51.474;7.228;2024-01-07T13:16:42;2.47;;;1.63;;
50968;SDS011;36982;51.474;7.228;2024-01-07T13:19:08;2.53;;;1.63;;
50968;SDS011;36982;51.474;7.228;2024-01-07T13:21:35;3.27;;;1.37;;
50968;SDS011;36982;51.474;7.228;2024-01-07T13:24:02;2.67;;;1.50;;
50968;SDS011;36982;51.474;7.228;2024-01-07T13:26:28;0.90;;;0.73;;
50968;SDS011;36982;51.474;7.228;2024-01-07T13:28:53;2.73;;;1.40;;
50968;SDS011;36982;51.474;7.228;2024-01-07T13:31:19;2.23;;;1.30;;
50968;SDS011;36982;51.474;7.228;2024-01-07T13:33:45;1.57;;;1.00;;
50968;SDS011;36982;51.474;7.228;2024-01-07T13:36:11;3.07;;;1.20;;
50968;SDS011;36982;51.474;7.228;2024-01-07T13:38:38;0.83;;;0.83;;
50968;SDS011;36982;51.474;7.228;2024-01-07T13:41:06;2.13;;;1.40;;
50968;SDS011;36982;51.474;7.228;2024-01-07T13:43:32;1.97;;;1.40;;
50968;SDS011;36982;51.474;7.228;2024-01-07T13:45:59;1.93;;;1.20;;
50968;SDS011;36982;51.474;7.228;2024-01-07T13:48:25;1.50;;;1.40;;
50968;SDS011;36982;51.474;7.228;2024-01-07T13:50:51;3.77;;;1.40;;
50968;SDS011;36982;51.474;7.228;2024-01-07T13:53:18;1.80;;;1.20;;
50968;SDS011;36982;51.474;7.228;2024-01-07T13:55:44;0.80;;;0.70;;
50968;SDS011;36982;51.474;7.228;2024-01-07T13:58:11;2.47;;;1.30;;
50968;SDS011;36982;51.474;7.228;2024-01-07T14:00:37;2.67;;;1.67;;
50968;SDS011;36982;51.474;7.228;2024-01-07T14:03:03;1.77;;;0.73;;
50968;SDS011;36982;51.474;7.228;2024-01-07T14:05:29;0.80;;;0.80;;
50968;SDS011;36982;51.474;7.228;2024-01-07T14:07:55;2.10;;;1.33;;
50968;SDS011;36982;51.474;7.228;2024-01-07T14:10:20;2.40;;;1.40;;
50968;SDS011;36982;51.474;7.228;2024-01-07T14:12:46;5.07;;;1.40;;
50968;SDS011;36982;51.474;7.228;2024-01-07T14:15:12;1.93;;;1.40;;
50968;SDS011;36982;51.474;7.228;2024-01-07T14:17:38;1.87;;;1.30;;
50968;SDS011;36982;51.474;7.228;2024-01-07T14:20:04;1.70;;;0.80;;
50968;SDS011;36982;51.474;7.228;2024-01-07T14:22:34;2.63;;;1.23;;
50968;SDS011;36982;51.474;7.228;2024-01-07T14:25:00;1.60;;;1.00;;
50968;SDS011;36982;51.474;7.228;2024-01-07T14:27:26;3.33;;;1.17;;
50968;SDS011;36982;51.474;7.228;2024-01-07T14:29:52;0.70;;;0.50;;
50968;SDS011;36982;51.474;7.228;2024-01-07T14:32:18;2.77;;;1.00;;
50968;SDS011;36982;51.474;7.228;2024-01-07T14:34:43;1.50;;;1.13;;
50968;SDS011;36982;51.474;7.228;2024-01-07T14:37:09;0.93;;;0.60;;
50968;SDS011;36982;51.474;7.228;2024-01-07T14:39:38;0.97;;;0.87;;
50968;SDS011;36982;51.474;7.228;2024-01-07T14:42:04;1.00;;;0.60;;
50968;SDS011;36982;51.474;7.228;2024-01-07T14:44:30;1.10;;;0.90;;
50968;SDS011;36982;51.474;7.228;2024-01-07T14:46:55;1.10;;;0.50;;
50968;SDS011;36982;51.474;7.228;2024-01-07T14:49:21;1.03;;;0.80;;
50968;SDS011;36982;51.474;7.228;2024-01-07T14:51:46;3.53;;;0.87;;